Azalea, OR

11:11 AM PDT on September 21, 2014 (GMT -0700)
wolf creek | Change Station
CLOSE
Current Station
Personal Weather Station
Location: Wolf Creek, OR
Elevation: 1503 ft
Nearby Weather Stations

Elev 1503 ft 42.71 °N, 123.37 °W | Updated 12 seconds ago

Clear
Clear
77.9 °F
Feels Like 79 °F
N
5.8
Wind Variable Wind from East
Gusts 5.8 mph

Today
High -- | Low -- °F
--% Chance of Precip.
Yesterday
High -- | Low -- °F
Precip. -- in
6:59 AM 7:11 PM
Waning Crescent, 6% visible
Pressure 29.91 in
Visibility 10.0 miles
Clouds Clear
Heat Index 79 °F
Dew Point 55 °F
Humidity 45%
Rainfall 0.00 in
Snow Depth 0 in , 0 in , 0 in
UV 5 out of 12
Pollen 4.00 out of 12
Air Quality Not available.
Flu Activity Not available.
METAR KRBG 211753Z AUTO 00000KT 10SM CLR 22/13 A2992 RMK AO2 SLP129 T02220133 10222 20156 50002

More Conditions Fewer Conditions

Pressure 29.91 in
Visibility 10.0 miles
Clouds Clear
Heat Index 79 °F
Dew Point 55 °F
Humidity 45%
Rainfall 0.00 in
Snow Depth 0 in , 0 in , 0 in
UV 5 out of 12
Pollen 4.00 out of 12
Air Quality Not available.
Flu Activity Not available.
METAR KRBG 211753Z AUTO 00000KT 10SM CLR 22/13 A2992 RMK AO2 SLP129 T02220133 10222 20156 50002

More Conditions Fewer Conditions

10-Day Weather Forecast

Almanac

Astronomy

Sep. 21, 2014 Rise Set
Actual Time 6:59 AM PDT 7:11 PM PDT
Civil Twilight 6:30 AM PDT 7:39 PM PDT
Nautical Twilight 5:57 AM PDT 8:13 PM PDT
Astronomical Twilight 5:23 AM PDT 8:46 PM PDT
Moon 4:35 AM PDT 5:52 PM PDT
Length of Visible Light 13h 09m
Length of Day
12h 12m
Tomorrow will be 2m 53s shorter.
Waning Crescent, 6% of the Moon is Illuminated
Today
Waning Crescent
Sep 24
New
Oct 1
First Quarter
Oct 8
Full
Oct 15
Last Quarter

Today's Extremes

State Highs State Lows

Community

WunderPhotos

Upload Photos

1,755,213 photos uploaded!

WunderBlogs® & News

Nearby

Snow Depth

Station Depth Elevation
Santiam Junction 0 in 3750 ft
Chemult Alternate 0 in 4760 ft
Blue Mountain Spring 0 in 5900 ft
Cold Springs Camp 0 in 6100 ft
Snow Mountain 0 in 6220 ft

Earthquake Activity

City Distance Mag. Time & Date
Eureka, California 140 miles 3.1 1:33 PM PDT
2014-09-20
Minimum magnitude displayed is 2.5.

Coastal Water Temperatures

Place Temperature
No Stations Reporting

Nearby Weather Stations